Time;durP1;ratioP1;P1;durP2;ratioP2;P2;SDS_P1;SDS_P2;PMS_P1;PMS_P2;Temp;Humidity;BMP_temperature;BMP_pressure;BME280_temperature;BME280_humidity;BME280_pressure;Samples;Min_cycle;Max_cycle;Signal;HPM_P1;HPM_P2
2022/01/23 00:01:51;;;;;;;7.73;3.77;;;;;;;;;;5025065;28;20311;-62
2022/01/23 00:04:18;;;;;;;4.90;3.53;;;;;;;;;;5024536;28;20235;-63
2022/01/23 00:06:48;;;;;;;7.73;4.77;;;;;;;;;;5025507;28;20920;-62
2022/01/23 00:09:18;;;;;;;5.87;3.43;;;;;;;;;;5024998;28;20213;-61
2022/01/23 00:11:51;;;;;;;7.90;4.40;;;;;;;;;;5025356;28;20262;-62
2022/01/23 00:17:20;;;;;;;7.03;3.30;;;;;;;;;;5025142;28;20322;-62
2022/01/23 00:19:47;;;;;;;5.70;3.80;;;;;;;;;;5024243;28;20204;-61
2022/01/23 00:22:17;;;;;;;11.17;4.80;;;;;;;;;;5024983;28;20212;-62
2022/01/23 00:30:25;;;;;;;8.97;4.20;;;;;;;;;;5024824;28;20314;-62
2022/01/23 00:32:52;;;;;;;8.53;4.93;;;;;;;;;;5024788;28;20212;-62
2022/01/23 00:35:19;;;;;;;8.23;4.40;;;;;;;;;;5024824;28;20273;-60
2022/01/23 00:37:48;;;;;;;7.47;3.73;;;;;;;;;;5025129;28;20255;-61
2022/01/23 00:40:15;;;;;;;7.53;3.97;;;;;;;;;;5024958;28;20258;-62
2022/01/23 00:42:42;;;;;;;6.47;4.23;;;;;;;;;;5024925;28;20228;-62
2022/01/23 00:45:26;;;;;;;8.57;4.33;;;;;;;;;;5024954;28;20323;-62
2022/01/23 00:47:55;;;;;;;8.93;4.60;;;;;;;;;;5024899;28;20253;-62
2022/01/23 00:50:22;;;;;;;6.27;4.23;;;;;;;;;;5024932;28;20247;-61
2022/01/23 00:52:50;;;;;;;9.30;4.57;;;;;;;;;;5024042;28;20208;-62
2022/01/23 00:55:18;;;;;;;7.47;4.43;;;;;;;;;;5024814;28;20243;-62
2022/01/23 00:57:45;;;;;;;6.77;4.10;;;;;;;;;;5024628;28;20201;-62
2022/01/23 01:00:13;;;;;;;6.63;4.07;;;;;;;;;;5024903;28;20255;-62
2022/01/23 01:02:40;;;;;;;10.17;5.03;;;;;;;;;;5024575;28;20211;-61
2022/01/23 01:05:08;;;;;;;9.07;4.87;;;;;;;;;;5024510;28;20734;-62
2022/01/23 01:07:35;;;;;;;7.40;4.73;;;;;;;;;;5024333;28;20212;-62
2022/01/23 01:10:08;;;;;;;6.07;4.13;;;;;;;;;;5024018;28;20251;-61
2022/01/23 01:12:40;;;;;;;10.37;4.83;;;;;;;;;;5024339;28;20201;-62
2022/01/23 01:31:42;;;;;;;9.40;5.17;;;;;;;;;;5028391;28;20582;-62
2022/01/23 01:34:10;;;;;;;9.40;5.33;;;;;;;;;;5027987;28;20467;-62
2022/01/23 01:36:46;;;;;;;12.87;5.27;;;;;;;;;;5031842;28;20204;-62
2022/01/23 01:39:13;;;;;;;8.13;5.03;;;;;;;;;;5027327;28;20746;-60
2022/01/23 01:41:42;;;;;;;8.80;5.20;;;;;;;;;;5031437;28;20560;-61
2022/01/23 01:44:09;;;;;;;10.23;5.40;;;;;;;;;;5028930;28;20224;-59
2022/01/23 01:46:39;;;;;;;10.30;5.63;;;;;;;;;;5012738;28;20221;-61
2022/01/23 01:49:07;;;;;;;10.93;4.90;;;;;;;;;;5031838;28;20216;-62
2022/01/23 01:51:34;;;;;;;9.50;5.77;;;;;;;;;;5031462;28;20263;-63
2022/01/23 01:54:08;;;;;;;12.13;6.00;;;;;;;;;;5028256;28;20227;-61
2022/01/23 01:56:46;;;;;;;12.57;6.43;;;;;;;;;;5031456;28;20294;-60
2022/01/23 01:59:23;;;;;;;14.83;6.70;;;;;;;;;;5011878;28;20748;-62
2022/01/23 02:10:13;;;;;;;14.60;5.83;;;;;;;;;;5030795;28;20203;-62
2022/01/23 02:15:47;;;;;;;9.73;5.00;;;;;;;;;;5031006;28;20278;-61
2022/01/23 02:18:32;;;;;;;15.17;6.50;;;;;;;;;;5027321;28;20719;-62
2022/01/23 02:24:21;;;;;;;12.57;6.70;;;;;;;;;;5030198;28;20232;-61
2022/01/23 02:51:47;;;;;;;14.77;6.03;;;;;;;;;;5019491;28;20227;-60
2022/01/23 02:54:41;;;;;;;12.17;6.30;;;;;;;;;;5030154;28;20239;-61
2022/01/23 02:57:09;;;;;;;12.97;5.50;;;;;;;;;;5029605;28;20208;-60
2022/01/23 02:59:38;;;;;;;13.07;6.80;;;;;;;;;;5029911;28;20790;-61
2022/01/23 03:02:12;;;;;;;11.27;6.23;;;;;;;;;;5029345;28;20212;-61
2022/01/23 03:04:48;;;;;;;15.03;6.73;;;;;;;;;;5029760;28;20248;-60
2022/01/23 03:07:31;;;;;;;12.87;6.93;;;;;;;;;;5029445;28;20626;-60
2022/01/23 03:10:03;;;;;;;18.50;7.30;;;;;;;;;;5010915;28;20220;-62
2022/01/23 03:15:23;;;;;;;14.13;6.17;;;;;;;;;;5028604;28;20278;-61
2022/01/23 03:26:18;;;;;;;16.33;7.13;;;;;;;;;;5029633;28;20211;-61
2022/01/23 03:29:03;;;;;;;13.77;6.17;;;;;;;;;;5029609;28;20219;-61
2022/01/23 03:31:33;;;;;;;12.87;6.70;;;;;;;;;;5029536;28;20640;-61
2022/01/23 03:34:00;;;;;;;13.40;6.77;;;;;;;;;;5029820;28;20662;-61
2022/01/23 03:36:28;;;;;;;14.57;6.37;;;;;;;;;;5028607;28;20206;-62
2022/01/23 03:38:55;;;;;;;14.47;6.53;;;;;;;;;;5029842;28;20238;-61
2022/01/23 03:41:23;;;;;;;15.40;7.37;;;;;;;;;;5028962;28;20258;-61
2022/01/23 03:43:50;;;;;;;14.17;6.77;;;;;;;;;;5029783;28;20212;-61
2022/01/23 03:46:36;;;;;;;11.43;6.60;;;;;;;;;;5029266;28;20204;-61
2022/01/23 03:51:49;;;;;;;12.00;6.20;;;;;;;;;;5029178;28;20227;-61
2022/01/23 03:54:16;;;;;;;14.20;6.23;;;;;;;;;;5029668;28;20250;-61
2022/01/23 03:56:45;;;;;;;14.30;6.83;;;;;;;;;;5029124;28;20200;-61
2022/01/23 03:59:12;;;;;;;15.37;6.73;;;;;;;;;;5029369;28;20232;-61
2022/01/23 04:01:39;;;;;;;12.33;6.53;;;;;;;;;;5029151;28;20212;-62
2022/01/23 04:04:17;;;;;;;12.90;6.03;;;;;;;;;;5029214;28;20679;-61
2022/01/23 04:06:44;;;;;;;9.97;4.93;;;;;;;;;;5029194;28;20298;-61
2022/01/23 04:09:11;;;;;;;18.93;7.93;;;;;;;;;;5029242;28;20208;-62
2022/01/23 04:11:38;;;;;;;18.27;6.93;;;;;;;;;;5029012;28;20205;-61
2022/01/23 04:14:08;;;;;;;12.77;5.23;;;;;;;;;;5028940;28;20212;-61
2022/01/23 04:17:04;;;;;;;12.27;6.70;;;;;;;;;;5029047;28;20266;-61
2022/01/23 04:19:38;;;;;;;13.90;7.03;;;;;;;;;;5029553;28;20208;-60
2022/01/23 04:33:31;;;;;;;16.10;6.83;;;;;;;;;;5029150;28;20203;-61
2022/01/23 04:47:46;;;;;;;14.67;6.27;;;;;;;;;;5028921;28;20208;-60
2022/01/23 05:01:02;;;;;;;15.40;6.97;;;;;;;;;;5032861;28;20284;-61
2022/01/23 05:04:06;;;;;;;14.43;6.90;;;;;;;;;;5032593;28;20212;-61
2022/01/23 05:06:41;;;;;;;18.40;6.70;;;;;;;;;;5032531;28;20311;-61
2022/01/23 05:09:08;;;;;;;12.87;6.50;;;;;;;;;;5032775;28;20298;-61
2022/01/23 05:11:36;;;;;;;15.40;7.53;;;;;;;;;;5032011;28;20204;-61
2022/01/23 05:14:03;;;;;;;13.17;6.70;;;;;;;;;;5032515;28;20235;-61
2022/01/23 05:16:31;;;;;;;13.77;6.90;;;;;;;;;;5032323;28;20212;-61
2022/01/23 05:19:00;;;;;;;16.03;7.03;;;;;;;;;;5032319;28;20215;-60
2022/01/23 05:22:02;;;;;;;14.70;5.47;;;;;;;;;;5032241;28;20212;-60
2022/01/23 05:24:34;;;;;;;16.13;6.33;;;;;;;;;;5024018;28;20231;-61
2022/01/23 05:27:02;;;;;;;14.13;5.53;;;;;;;;;;5032142;28;20216;-60
2022/01/23 05:29:29;;;;;;;17.30;7.03;;;;;;;;;;5032363;28;20219;-61
2022/01/23 05:31:56;;;;;;;16.63;6.13;;;;;;;;;;5031818;28;20765;-60
2022/01/23 05:34:25;;;;;;;22.13;6.97;;;;;;;;;;5031766;28;20246;-61
2022/01/23 05:36:52;;;;;;;12.90;6.47;;;;;;;;;;5031557;28;20219;-61
2022/01/23 05:39:22;;;;;;;15.13;5.97;;;;;;;;;;5031922;28;20208;-62
2022/01/23 05:41:52;;;;;;;16.17;7.17;;;;;;;;;;5031304;28;20196;-61
2022/01/23 05:44:19;;;;;;;14.77;5.77;;;;;;;;;;5031506;28;20694;-61
2022/01/23 05:46:47;;;;;;;13.43;5.73;;;;;;;;;;5031464;28;20311;-61
2022/01/23 05:49:14;;;;;;;17.97;6.67;;;;;;;;;;5032025;28;20761;-61
2022/01/23 05:51:43;;;;;;;13.93;6.07;;;;;;;;;;5031526;28;20773;-61
2022/01/23 05:54:10;;;;;;;12.03;7.07;;;;;;;;;;5031571;28;20616;-59
2022/01/23 05:56:37;;;;;;;11.73;5.57;;;;;;;;;;5029783;28;20693;-60
2022/01/23 05:59:04;;;;;;;14.03;6.97;;;;;;;;;;5011399;28;20279;-61
2022/01/23 06:01:31;;;;;;;15.30;6.57;;;;;;;;;;5027731;28;20208;-61
2022/01/23 06:03:58;;;;;;;15.00;6.87;;;;;;;;;;5030617;28;20250;-61
2022/01/23 06:06:25;;;;;;;13.20;6.67;;;;;;;;;;5028849;28;20274;-59
2022/01/23 06:08:53;;;;;;;22.23;7.07;;;;;;;;;;5031023;28;20318;-61
2022/01/23 06:11:20;;;;;;;12.33;6.00;;;;;;;;;;5030358;28;20232;-61
2022/01/23 06:13:47;;;;;;;14.43;6.63;;;;;;;;;;5030655;28;20204;-61
2022/01/23 06:16:14;;;;;;;14.37;5.43;;;;;;;;;;5030764;28;20205;-61
2022/01/23 06:18:43;;;;;;;14.80;6.13;;;;;;;;;;5030758;28;20212;-61
2022/01/23 06:21:12;;;;;;;15.17;7.20;;;;;;;;;;5030450;28;20690;-60
2022/01/23 06:23:39;;;;;;;16.70;6.40;;;;;;;;;;5030127;28;20216;-59
2022/01/23 06:26:07;;;;;;;15.70;6.80;;;;;;;;;;5028816;28;20261;-60
2022/01/23 06:28:40;;;;;;;12.47;6.20;;;;;;;;;;5030455;28;20702;-59
2022/01/23 06:31:08;;;;;;;15.20;6.50;;;;;;;;;;5028900;28;20630;-59
2022/01/23 06:33:35;;;;;;;14.90;6.67;;;;;;;;;;5029827;28;20251;-60
2022/01/23 06:36:02;;;;;;;16.23;7.27;;;;;;;;;;5030098;28;20262;-59
2022/01/23 06:38:29;;;;;;;18.83;6.80;;;;;;;;;;5030298;28;20295;-59
2022/01/23 06:40:56;;;;;;;12.77;6.93;;;;;;;;;;5029952;28;20208;-59
2022/01/23 06:43:25;;;;;;;20.67;7.77;;;;;;;;;;5029977;28;20211;-59
2022/01/23 06:45:52;;;;;;;17.07;7.17;;;;;;;;;;5029879;28;20294;-59
2022/01/23 06:48:19;;;;;;;14.10;6.13;;;;;;;;;;5025286;28;20289;-60
2022/01/23 06:50:46;;;;;;;12.77;6.30;;;;;;;;;;5027649;28;20232;-60
2022/01/23 06:53:13;;;;;;;18.17;7.27;;;;;;;;;;5027932;28;20266;-60
2022/01/23 06:55:40;;;;;;;16.50;6.47;;;;;;;;;;5029367;28;20216;-60
2022/01/23 06:58:07;;;;;;;14.10;7.13;;;;;;;;;;5027447;28;20204;-60
2022/01/23 07:00:35;;;;;;;12.80;6.37;;;;;;;;;;5029821;28;20259;-60
2022/01/23 07:03:02;;;;;;;15.90;6.53;;;;;;;;;;5027689;28;20216;-60
2022/01/23 07:05:29;;;;;;;11.63;6.33;;;;;;;;;;5027005;28;20482;-60
2022/01/23 07:07:56;;;;;;;10.30;5.30;;;;;;;;;;5028899;28;20204;-61
2022/01/23 07:10:24;;;;;;;11.30;5.50;;;;;;;;;;5029433;28;20278;-60
2022/01/23 07:12:52;;;;;;;12.30;6.53;;;;;;;;;;5027487;28;20986;-60
2022/01/23 07:15:19;;;;;;;15.93;7.27;;;;;;;;;;5029428;28;20204;-60
2022/01/23 07:17:47;;;;;;;13.50;6.13;;;;;;;;;;5027442;28;20215;-60
2022/01/23 07:20:14;;;;;;;13.50;6.43;;;;;;;;;;5029159;28;20630;-60
2022/01/23 07:22:41;;;;;;;14.33;6.73;;;;;;;;;;5027216;28;20621;-60
2022/01/23 07:25:09;;;;;;;14.10;5.73;;;;;;;;;;5029021;28;20228;-60
2022/01/23 07:27:40;;;;;;;13.03;6.03;;;;;;;;;;5026756;28;20266;-60
2022/01/23 07:30:20;;;;;;;11.37;5.73;;;;;;;;;;5029149;28;20223;-60
2022/01/23 07:32:48;;;;;;;17.87;6.63;;;;;;;;;;5026486;28;20997;-60
2022/01/23 07:35:15;;;;;;;10.70;5.77;;;;;;;;;;5028896;28;20244;-60
2022/01/23 07:37:42;;;;;;;18.00;7.03;;;;;;;;;;5027046;28;20212;-60
2022/01/23 07:40:10;;;;;;;12.93;6.37;;;;;;;;;;5028941;28;20258;-60
2022/01/23 07:42:39;;;;;;;14.97;7.07;;;;;;;;;;5024744;28;20208;-60
2022/01/23 07:45:07;;;;;;;14.23;6.70;;;;;;;;;;5027154;28;20677;-60
2022/01/23 07:47:34;;;;;;;15.40;7.07;;;;;;;;;;5026870;28;20208;-60
2022/01/23 07:50:03;;;;;;;15.67;7.63;;;;;;;;;;5028661;28;20235;-59
2022/01/23 07:52:32;;;;;;;14.47;6.53;;;;;;;;;;5028685;28;20200;-59
2022/01/23 07:54:59;;;;;;;15.70;6.53;;;;;;;;;;5028551;28;20751;-61
2022/01/23 07:57:26;;;;;;;14.30;6.23;;;;;;;;;;5026378;28;20281;-60
2022/01/23 07:59:53;;;;;;;15.43;6.73;;;;;;;;;;5026639;28;20216;-61
2022/01/23 08:02:22;;;;;;;14.97;7.27;;;;;;;;;;5038341;28;20262;-60
2022/01/23 08:04:49;;;;;;;16.17;7.07;;;;;;;;;;5035709;28;20627;-60
2022/01/23 08:07:30;;;;;;;14.60;6.97;;;;;;;;;;5020367;28;20236;-60
2022/01/23 08:09:57;;;;;;;12.27;6.67;;;;;;;;;;5029340;28;20906;-60
2022/01/23 08:12:24;;;;;;;15.23;5.80;;;;;;;;;;5026809;28;20208;-60
2022/01/23 08:14:51;;;;;;;19.90;6.87;;;;;;;;;;5027834;28;20258;-61
2022/01/23 08:17:19;;;;;;;16.10;6.70;;;;;;;;;;5029010;28;20204;-62
2022/01/23 08:19:46;;;;;;;11.70;6.57;;;;;;;;;;5029115;28;20202;-62
2022/01/23 08:22:13;;;;;;;11.10;6.47;;;;;;;;;;5029421;28;20421;-62
2022/01/23 08:24:41;;;;;;;14.17;7.23;;;;;;;;;;5030872;28;20204;-62
2022/01/23 08:27:09;;;;;;;16.47;6.87;;;;;;;;;;5032274;28;20362;-62
2022/01/23 08:29:36;;;;;;;16.30;6.70;;;;;;;;;;5030978;28;20224;-61
2022/01/23 08:32:03;;;;;;;13.27;6.20;;;;;;;;;;5032759;28;20204;-61
2022/01/23 08:34:30;;;;;;;13.27;6.77;;;;;;;;;;5032899;28;20244;-61
2022/01/23 08:36:57;;;;;;;12.93;7.03;;;;;;;;;;5032870;28;21023;-61
2022/01/23 08:39:26;;;;;;;15.43;6.30;;;;;;;;;;5033036;28;20220;-60
2022/01/23 08:41:54;;;;;;;13.67;5.93;;;;;;;;;;5032955;28;20208;-60
2022/01/23 08:44:22;;;;;;;11.77;6.20;;;;;;;;;;5032308;28;20200;-61
2022/01/23 08:46:49;;;;;;;12.77;5.77;;;;;;;;;;5032751;28;20221;-61
2022/01/23 08:49:17;;;;;;;15.60;6.30;;;;;;;;;;5032624;28;20204;-62
2022/01/23 08:51:44;;;;;;;13.57;6.13;;;;;;;;;;5032822;28;20326;-61
2022/01/23 08:54:12;;;;;;;11.80;5.07;;;;;;;;;;5032215;28;20212;-61
2022/01/23 08:56:39;;;;;;;14.63;6.47;;;;;;;;;;5032417;28;20200;-61
2022/01/23 08:59:07;;;;;;;11.47;5.27;;;;;;;;;;5032615;28;20200;-61
2022/01/23 09:01:34;;;;;;;13.00;6.00;;;;;;;;;;5032736;28;20749;-61
2022/01/23 09:04:02;;;;;;;11.33;5.53;;;;;;;;;;5032433;28;20216;-62
2022/01/23 09:06:29;;;;;;;14.87;6.40;;;;;;;;;;5032541;28;20228;-62
2022/01/23 09:08:58;;;;;;;16.07;6.17;;;;;;;;;;5032388;28;20212;-61
2022/01/23 09:11:27;;;;;;;14.37;5.90;;;;;;;;;;5031857;28;20207;-60
2022/01/23 09:14:06;;;;;;;13.67;6.33;;;;;;;;;;5032401;28;20216;-60
2022/01/23 09:16:35;;;;;;;10.50;5.97;;;;;;;;;;5012882;28;20227;-61
2022/01/23 09:19:02;;;;;;;11.50;6.30;;;;;;;;;;5030088;28;20576;-61
2022/01/23 09:21:29;;;;;;;14.03;6.47;;;;;;;;;;5030502;28;20526;-61
2022/01/23 09:23:56;;;;;;;10.60;6.77;;;;;;;;;;5032105;28;20227;-61
2022/01/23 09:26:24;;;;;;;11.43;5.80;;;;;;;;;;5031678;28;20224;-61
2022/01/23 09:28:53;;;;;;;16.83;7.03;;;;;;;;;;5031968;28;20211;-60
2022/01/23 09:31:29;;;;;;;13.33;6.90;;;;;;;;;;5032139;28;20204;-60
2022/01/23 09:33:57;;;;;;;13.47;5.83;;;;;;;;;;5032180;28;20231;-60
2022/01/23 09:36:24;;;;;;;11.77;5.47;;;;;;;;;;5031577;28;20579;-60
2022/01/23 09:38:51;;;;;;;17.20;6.50;;;;;;;;;;5032353;28;20204;-62
2022/01/23 09:41:21;;;;;;;11.47;5.73;;;;;;;;;;5048703;28;20203;-63
2022/01/23 09:43:48;;;;;;;10.27;5.50;;;;;;;;;;5048317;28;20211;-60
2022/01/23 09:46:16;;;;;;;13.57;5.37;;;;;;;;;;5031773;28;20259;-59
2022/01/23 09:48:44;;;;;;;10.13;5.33;;;;;;;;;;5031323;28;20596;-62
2022/01/23 09:51:13;;;;;;;19.10;5.47;;;;;;;;;;5031458;28;20328;-61
2022/01/23 09:53:41;;;;;;;10.60;5.17;;;;;;;;;;5031416;28;20204;-60
2022/01/23 09:56:09;;;;;;;11.37;5.20;;;;;;;;;;5031459;28;20291;-59
2022/01/23 09:58:38;;;;;;;12.43;5.50;;;;;;;;;;5031313;28;20262;-59
2022/01/23 10:01:06;;;;;;;12.67;5.43;;;;;;;;;;5031120;28;20730;-60
2022/01/23 10:03:33;;;;;;;12.00;5.90;;;;;;;;;;5031185;28;20223;-61
2022/01/23 10:06:00;;;;;;;17.17;6.60;;;;;;;;;;5030776;28;20319;-61
2022/01/23 10:08:29;;;;;;;15.50;6.43;;;;;;;;;;5030559;28;20296;-59
2022/01/23 10:10:57;;;;;;;12.70;7.23;;;;;;;;;;5028316;28;20212;-64
2022/01/23 10:13:24;;;;;;;10.53;6.27;;;;;;;;;;5029001;28;20266;-61
2022/01/23 10:15:51;;;;;;;12.17;6.17;;;;;;;;;;5039496;28;20207;-61
2022/01/23 10:18:19;;;;;;;13.00;6.27;;;;;;;;;;5049877;28;20207;-60
2022/01/23 10:20:46;;;;;;;21.53;7.87;;;;;;;;;;5010650;28;20205;-60
2022/01/23 10:23:14;;;;;;;13.70;7.07;;;;;;;;;;5029163;28;20233;-60
2022/01/23 10:25:43;;;;;;;12.15;5.85;;;;;;;;;;5030134;28;20219;-60
2022/01/23 10:28:12;;;;;;;15.73;7.40;;;;;;;;;;5030289;28;20209;-59
2022/01/23 10:30:41;;;;;;;11.97;6.43;;;;;;;;;;5030271;28;20462;-60
2022/01/23 10:33:10;;;;;;;13.63;7.10;;;;;;;;;;5030440;28;20243;-60
2022/01/23 10:35:52;;;;;;;13.63;7.27;;;;;;;;;;5021639;28;20244;-60
2022/01/23 10:38:20;;;;;;;13.30;5.97;;;;;;;;;;5030153;28;20201;-61
2022/01/23 10:40:52;;;;;;;18.57;7.33;;;;;;;;;;5028557;28;20481;-60
2022/01/23 10:48:47;;;;;;;14.23;6.23;;;;;;;;;;5028044;28;20241;-63
2022/01/23 10:51:16;;;;;;;17.13;7.07;;;;;;;;;;5029927;28;20323;-61
2022/01/23 10:53:57;;;;;;;13.83;7.20;;;;;;;;;;5020841;28;20216;-61
2022/01/23 10:56:25;;;;;;;14.13;6.30;;;;;;;;;;5024627;28;20299;-62
2022/01/23 10:58:59;;;;;;;14.63;6.27;;;;;;;;;;5027244;28;20208;-61
2022/01/23 11:01:28;;;;;;;14.17;7.27;;;;;;;;;;5039686;28;20200;-61
2022/01/23 11:04:05;;;;;;;14.30;5.80;;;;;;;;;;5033487;28;20212;-61
2022/01/23 11:06:33;;;;;;;16.27;7.82;;;;;;;;;;5028774;28;20465;-62
2022/01/23 11:09:09;;;;;;;13.23;6.17;;;;;;;;;;5028911;28;20212;-60
2022/01/23 11:11:46;;;;;;;17.93;6.90;;;;;;;;;;5028191;28;20204;-61
2022/01/23 11:19:46;;;;;;;16.33;6.70;;;;;;;;;;5029234;28;20733;-61
2022/01/23 11:22:17;;;;;;;10.40;6.10;;;;;;;;;;5029402;28;20216;-61
2022/01/23 11:24:45;;;;;;;12.47;5.83;;;;;;;;;;5029046;28;20303;-61
2022/01/23 11:27:14;;;;;;;9.20;5.40;;;;;;;;;;5028854;28;20228;-61
2022/01/23 11:29:53;;;;;;;12.97;5.73;;;;;;;;;;5028707;28;20205;-61
2022/01/23 11:32:22;;;;;;;10.00;5.77;;;;;;;;;;5028831;28;20674;-62
2022/01/23 11:34:49;;;;;;;10.20;5.00;;;;;;;;;;5028764;28;20239;-62
2022/01/23 11:37:17;;;;;;;12.33;5.77;;;;;;;;;;5029007;28;20200;-60
2022/01/23 11:39:49;;;;;;;9.17;5.40;;;;;;;;;;5025122;28;20215;-61
2022/01/23 11:50:45;;;;;;;10.27;5.47;;;;;;;;;;5028686;28;20277;-62
2022/01/23 11:53:49;;;;;;;10.23;4.10;;;;;;;;;;5028111;28;20218;-60
2022/01/23 11:56:38;;;;;;;8.13;4.77;;;;;;;;;;5028456;28;20277;-63
2022/01/23 11:59:23;;;;;;;13.70;5.03;;;;;;;;;;5011846;28;20204;-62
2022/01/23 12:02:10;;;;;;;9.67;5.27;;;;;;;;;;5028111;28;20212;-62
2022/01/23 12:04:39;;;;;;;9.67;4.80;;;;;;;;;;5029456;28;20208;-61
2022/01/23 12:07:21;;;;;;;13.30;4.97;;;;;;;;;;5029302;28;20327;-62
2022/01/23 12:10:11;;;;;;;8.23;4.40;;;;;;;;;;5028469;28;20629;-63
2022/01/23 12:12:41;;;;;;;9.07;4.30;;;;;;;;;;5025389;28;20209;-61
2022/01/23 12:18:13;;;;;;;7.23;4.00;;;;;;;;;;5029225;28;20315;-64
2022/01/23 12:20:42;;;;;;;7.93;4.53;;;;;;;;;;5025165;28;20709;-61
2022/01/23 12:23:09;;;;;;;9.40;5.23;;;;;;;;;;5028646;28;20219;-64
2022/01/23 12:25:43;;;;;;;11.20;4.63;;;;;;;;;;5028098;28;20208;-62
2022/01/23 12:28:16;;;;;;;12.80;5.37;;;;;;;;;;5028669;28;20239;-63
2022/01/23 12:30:45;;;;;;;12.03;4.87;;;;;;;;;;5028153;28;20234;-64
2022/01/23 12:33:17;;;;;;;10.13;4.67;;;;;;;;;;5028625;28;20209;-64
2022/01/23 12:35:46;;;;;;;9.90;4.83;;;;;;;;;;5027717;28;20311;-62
2022/01/23 12:38:13;;;;;;;9.10;4.97;;;;;;;;;;5027763;28;20209;-64
2022/01/23 12:40:43;;;;;;;11.57;5.20;;;;;;;;;;5029033;28;20719;-62
2022/01/23 12:43:12;;;;;;;6.43;4.70;;;;;;;;;;5028440;28;20210;-65
2022/01/23 12:45:46;;;;;;;10.47;5.93;;;;;;;;;;5028812;28;20397;-63
2022/01/23 12:48:36;;;;;;;11.00;5.43;;;;;;;;;;5028746;28;20231;-62
2022/01/23 12:51:06;;;;;;;11.27;5.03;;;;;;;;;;5028895;28;20654;-63
2022/01/23 12:53:37;;;;;;;8.90;4.53;;;;;;;;;;5028539;28;20347;-62
2022/01/23 12:56:05;;;;;;;11.23;5.83;;;;;;;;;;5028499;28;20291;-63
2022/01/23 12:58:33;;;;;;;8.20;5.00;;;;;;;;;;5028395;28;20223;-63
2022/01/23 13:01:00;;;;;;;11.83;5.30;;;;;;;;;;5028780;28;20216;-64
2022/01/23 13:03:28;;;;;;;7.43;4.53;;;;;;;;;;5029003;28;20247;-61
2022/01/23 13:05:55;;;;;;;7.47;4.60;;;;;;;;;;5027617;28;20299;-64
2022/01/23 13:08:27;;;;;;;6.40;4.23;;;;;;;;;;5026550;28;20243;-62
2022/01/23 13:11:20;;;;;;;8.37;4.60;;;;;;;;;;5026278;28;20269;-66
2022/01/23 13:13:52;;;;;;;7.27;4.53;;;;;;;;;;5026702;28;20230;-65
2022/01/23 13:16:28;;;;;;;8.07;4.27;;;;;;;;;;5027288;28;20509;-63
2022/01/23 13:27:55;;;;;;;4.37;2.70;;;;;;;;;;5001040;28;20228;-64
2022/01/23 13:30:16;;;;;;;7.87;3.83;;;;;;;;;;5026647;28;20718;-64
2022/01/23 13:32:46;;;;;;;7.77;3.50;;;;;;;;;;5026786;28;20671;-64
2022/01/23 13:35:15;;;;;;;9.80;3.80;;;;;;;;;;5026415;28;20239;-64
2022/01/23 13:37:44;;;;;;;6.53;3.33;;;;;;;;;;5024872;28;20207;-63
2022/01/23 13:40:14;;;;;;;5.80;3.80;;;;;;;;;;5024656;28;20215;-63
2022/01/23 13:51:27;;;;;;;4.70;3.37;;;;;;;;;;5026359;28;20220;-63
2022/01/23 13:57:31;;;;;;;7.37;3.67;;;;;;;;;;5026303;28;20727;-62
2022/01/23 13:59:55;;;;;;;5.67;3.87;;;;;;;;;;5026041;28;20294;-63
2022/01/23 14:02:24;;;;;;;6.10;3.87;;;;;;;;;;5025982;28;20212;-64
2022/01/23 14:04:52;;;;;;;5.03;3.27;;;;;;;;;;5025908;28;20660;-62
2022/01/23 14:07:20;;;;;;;4.73;3.43;;;;;;;;;;5025670;28;20228;-63
2022/01/23 14:09:48;;;;;;;10.33;4.50;;;;;;;;;;5025784;28;20228;-63
2022/01/23 14:12:17;;;;;;;5.10;3.23;;;;;;;;;;5025002;28;20262;-64
2022/01/23 14:14:51;;;;;;;5.10;3.03;;;;;;;;;;5024755;28;20208;-63
2022/01/23 14:17:19;;;;;;;4.20;2.90;;;;;;;;;;5025621;28;20211;-66
2022/01/23 14:20:00;;;;;;;4.47;2.67;;;;;;;;;;5025191;28;20603;-63
2022/01/23 14:22:27;;;;;;;6.60;4.13;;;;;;;;;;5024008;28;20207;-62
2022/01/23 14:24:54;;;;;;;3.27;2.93;;;;;;;;;;5026080;28;20303;-62
2022/01/23 14:27:23;;;;;;;5.07;2.80;;;;;;;;;;5025844;28;20216;-62
2022/01/23 14:29:51;;;;;;;6.97;3.60;;;;;;;;;;5026046;28;20204;-62
2022/01/23 14:32:23;;;;;;;4.90;3.37;;;;;;;;;;5026538;28;20208;-62
2022/01/23 14:34:51;;;;;;;7.87;4.33;;;;;;;;;;5026158;28;20239;-62
2022/01/23 14:37:25;;;;;;;23.10;10.17;;;;;;;;;;5026613;28;20306;-61
2022/01/23 14:40:07;;;;;;;52.40;19.20;;;;;;;;;;5025548;28;20208;-61
2022/01/23 14:42:36;;;;;;;20.17;8.03;;;;;;;;;;5026168;28;20357;-62
2022/01/23 14:45:05;;;;;;;15.23;6.77;;;;;;;;;;5025883;28;20307;-61
2022/01/23 14:47:37;;;;;;;10.27;6.00;;;;;;;;;;5023470;28;20234;-63
2022/01/23 14:50:06;;;;;;;8.60;5.10;;;;;;;;;;5025436;28;20236;-62
2022/01/23 14:52:33;;;;;;;4.70;3.10;;;;;;;;;;5026115;28;20239;-63
2022/01/23 14:55:00;;;;;;;3.40;3.13;;;;;;;;;;5025617;28;20220;-64
2022/01/23 14:57:27;;;;;;;5.90;3.27;;;;;;;;;;5025815;28;20208;-63
2022/01/23 14:59:58;;;;;;;6.27;2.63;;;;;;;;;;5025932;28;20235;-63
2022/01/23 15:02:25;;;;;;;4.93;3.33;;;;;;;;;;5025926;28;20220;-63
2022/01/23 15:04:53;;;;;;;4.33;2.83;;;;;;;;;;5026046;28;20216;-62
2022/01/23 15:07:20;;;;;;;5.57;3.00;;;;;;;;;;5024545;28;20232;-62
2022/01/23 15:09:48;;;;;;;4.60;2.93;;;;;;;;;;5025537;28;20805;-64
2022/01/23 15:12:15;;;;;;;4.27;3.23;;;;;;;;;;5025157;28;20211;-63
2022/01/23 15:14:43;;;;;;;4.80;3.60;;;;;;;;;;5025456;28;20208;-62
2022/01/23 15:17:11;;;;;;;7.00;2.47;;;;;;;;;;5025254;28;20215;-62
2022/01/23 15:19:38;;;;;;;3.27;2.20;;;;;;;;;;5024752;28;20221;-62
2022/01/23 15:22:05;;;;;;;4.03;3.03;;;;;;;;;;5025110;28;20216;-62
2022/01/23 15:24:33;;;;;;;5.63;3.27;;;;;;;;;;5025519;28;20223;-64
2022/01/23 15:27:00;;;;;;;4.20;2.90;;;;;;;;;;5025492;28;20689;-62
2022/01/23 15:29:27;;;;;;;4.10;2.60;;;;;;;;;;5025415;28;20235;-64
2022/01/23 15:31:54;;;;;;;4.43;2.97;;;;;;;;;;5025124;28;20211;-63
2022/01/23 15:34:23;;;;;;;6.13;3.10;;;;;;;;;;5022704;28;20236;-64
2022/01/23 15:36:53;;;;;;;3.87;3.10;;;;;;;;;;5023257;28;20266;-64
2022/01/23 15:39:20;;;;;;;3.93;3.07;;;;;;;;;;5025192;28;20860;-63
2022/01/23 15:41:47;;;;;;;5.57;3.67;;;;;;;;;;5025081;28;20204;-63
2022/01/23 15:44:14;;;;;;;5.43;3.20;;;;;;;;;;5024431;28;20212;-63
2022/01/23 15:46:41;;;;;;;2.57;2.10;;;;;;;;;;5025228;28;20271;-62
2022/01/23 15:49:09;;;;;;;2.97;2.27;;;;;;;;;;5025268;28;20805;-63
2022/01/23 15:51:38;;;;;;;2.83;1.67;;;;;;;;;;5024500;28;20639;-64
2022/01/23 15:54:05;;;;;;;2.50;1.77;;;;;;;;;;5023263;28;20219;-63
2022/01/23 15:56:32;;;;;;;4.03;2.07;;;;;;;;;;5024744;28;20227;-63
2022/01/23 15:58:59;;;;;;;2.50;1.90;;;;;;;;;;5024685;28;20235;-62
2022/01/23 16:01:26;;;;;;;4.10;1.87;;;;;;;;;;5022110;28;20274;-63
2022/01/23 16:03:53;;;;;;;2.47;2.27;;;;;;;;;;5025090;28;20220;-63
2022/01/23 16:06:20;;;;;;;3.03;2.00;;;;;;;;;;5024870;28;20212;-63
2022/01/23 16:08:48;;;;;;;2.47;1.80;;;;;;;;;;5024683;28;20672;-63
2022/01/23 16:11:15;;;;;;;1.07;1.07;;;;;;;;;;5023585;28;20213;-63
2022/01/23 16:13:42;;;;;;;0.97;0.97;;;;;;;;;;5024090;28;20219;-62
2022/01/23 16:16:09;;;;;;;1.80;1.70;;;;;;;;;;5023033;28;20204;-63
2022/01/23 16:18:36;;;;;;;1.50;1.40;;;;;;;;;;5022498;28;20196;-63
2022/01/23 16:21:03;;;;;;;5.87;2.30;;;;;;;;;;5025020;28;20266;-62
2022/01/23 16:23:30;;;;;;;3.07;2.10;;;;;;;;;;5024583;28;20265;-62
2022/01/23 16:25:59;;;;;;;2.90;1.97;;;;;;;;;;5024949;28;20216;-62
2022/01/23 16:28:26;;;;;;;2.60;1.97;;;;;;;;;;5024432;28;20232;-63
2022/01/23 16:30:54;;;;;;;1.93;1.70;;;;;;;;;;5024814;28;20307;-63
2022/01/23 16:33:23;;;;;;;2.27;1.47;;;;;;;;;;5021834;28;20608;-63
2022/01/23 16:35:50;;;;;;;3.13;1.90;;;;;;;;;;5024717;28;20627;-63
2022/01/23 16:38:18;;;;;;;1.50;1.40;;;;;;;;;;5023866;28;20670;-69
2022/01/23 16:40:46;;;;;;;2.80;2.17;;;;;;;;;;5027270;28;20216;-67
2022/01/23 16:43:14;;;;;;;2.00;1.50;;;;;;;;;;5025418;28;20240;-68
2022/01/23 16:45:42;;;;;;;1.50;1.40;;;;;;;;;;5029075;28;20693;-69
2022/01/23 16:48:10;;;;;;;1.90;1.53;;;;;;;;;;5023276;28;20232;-68
2022/01/23 16:50:38;;;;;;;1.50;1.40;;;;;;;;;;5028879;28;20232;-68
2022/01/23 16:53:05;;;;;;;1.87;1.50;;;;;;;;;;5028208;28;20693;-63
2022/01/23 16:55:32;;;;;;;1.60;1.50;;;;;;;;;;5019752;28;20758;-63
2022/01/23 16:58:00;;;;;;;2.97;2.30;;;;;;;;;;5026117;28;20208;-63
2022/01/23 17:00:29;;;;;;;1.67;1.57;;;;;;;;;;5028893;28;20825;-63
2022/01/23 17:02:56;;;;;;;1.70;1.43;;;;;;;;;;5028301;28;20204;-63
2022/01/23 17:05:23;;;;;;;2.47;2.20;;;;;;;;;;5028155;28;20643;-63
2022/01/23 17:07:50;;;;;;;5.43;3.30;;;;;;;;;;5027978;28;20247;-62
2022/01/23 17:10:17;;;;;;;5.80;2.87;;;;;;;;;;5028261;28;20915;-63
2022/01/23 17:12:44;;;;;;;3.93;3.17;;;;;;;;;;5027630;28;20205;-63
2022/01/23 17:15:11;;;;;;;6.40;4.13;;;;;;;;;;5028409;28;20286;-63
2022/01/23 17:17:40;;;;;;;4.40;2.90;;;;;;;;;;5027340;28;20262;-63
2022/01/23 17:20:07;;;;;;;6.87;4.13;;;;;;;;;;5027529;28;20221;-63
2022/01/23 17:22:36;;;;;;;2.37;2.17;;;;;;;;;;5026958;28;20434;-63
2022/01/23 17:25:03;;;;;;;2.97;1.47;;;;;;;;;;5026622;28;20695;-64
2022/01/23 17:27:31;;;;;;;2.13;1.70;;;;;;;;;;5027133;28;20788;-61